Date,TemperatureHighF,TemperatureAvgF,TemperatureLowF,DewpointHighF,DewpointAvgF,DewpointLowF,HumidityHigh,HumidityAvg,HumidityLow,PressureMaxIn,PressureMinIn,WindSpeedMaxMPH,WindSpeedAvgMPH,GustSpeedMaxMPH,PrecipitationSumIn
2013-1-1,47.8,41.8,37.3,47.0,38.8,35.4,97,89,76,30.03,29.49,12,2,12,0.10
2013-1-2,50.8,43.4,35.8,50.3,42.4,34.4,98,96,91,30.32,30.03,12,2,12,0.01
2013-1-3,52.0,50.4,48.6,50.2,49.1,47.9,98,95,93,30.60,30.32,12,3,12,0.00
2013-1-4,50.4,48.7,46.0,48.5,46.2,44.4,97,91,85,30.64,30.58,12,3,12,0.00
2013-1-5,50.6,47.8,44.5,49.0,46.6,43.6,99,95,90,30.59,30.50,12,2,12,0.00
2013-1-6,47.1,45.6,43.8,46.5,45.1,43.1,99,98,96,30.51,30.38,10,1,10,0.01
2013-1-7,48.0,46.2,44.4,46.5,45.1,43.3,98,96,93,30.38,30.23,9,2,9,0.00
2013-1-8,51.4,49.3,46.9,48.9,47.4,45.3,98,93,88,30.25,30.17,11,2,11,0.04
2013-1-9,48.5,44.4,37.0,48.2,42.6,35.7,99,93,79,30.18,30.06,5,0,5,0.07
2013-1-10,37.8,35.2,31.3,36.8,34.4,30.5,99,97,95,30.06,29.92,4,0,4,0.00
2013-1-11,45.7,37.1,33.2,41.2,35.8,32.4,98,95,83,30.08,29.98,6,0,6,0.00
2013-1-12,40.9,37.8,34.2,36.0,33.8,29.6,98,86,64,29.98,29.85,22,4,22,0.03
2013-1-13,37.6,34.5,31.2,33.5,30.4,27.9,89,85,78,30.14,29.96,10,0,10,0.00
2013-1-14,36.0,33.2,31.5,35.5,32.0,29.2,99,95,88,30.09,29.61,9,1,9,0.02
2013-1-15,36.9,33.6,29.4,33.6,31.7,28.1,96,93,86,29.86,29.61,10,0,10,0.09
2013-1-16,31.0,28.8,26.8,30.1,28.0,25.4,98,97,94,30.02,29.83,7,0,7,0.00
2013-1-17,37.9,32.6,25.9,33.1,29.4,24.2,96,88,76,30.08,29.88,10,1,10,0.04
2013-1-18,35.7,30.9,28.3,30.3,28.6,26.6,97,91,79,29.88,29.43,19,6,19,0.01
2013-1-19,33.0,31.8,30.8,31.8,29.9,27.1,97,93,86,29.48,29.40,13,1,13,0.00
2013-1-20,32.0,30.6,29.3,31.0,29.1,26.6,97,94,85,29.47,29.27,10,0,10,0.00
2013-1-21,33.9,31.8,29.7,32.2,30.5,28.4,98,95,91,29.49,29.25,4,0,4,0.03
2013-1-22,36.6,33.1,28.1,35.3,31.3,26.4,98,93,83,29.69,29.49,17,3,17,0.10
2013-1-23,35.9,34.6,33.6,33.5,32.1,30.7,95,91,88,29.81,29.69,17,2,17,0.06
2013-1-24,35.9,34.4,31.4,32.5,30.8,28.5,94,87,78,30.14,29.80,11,0,12,0.01
2013-1-25,37.7,34.3,30.5,35.8,31.0,28.2,95,87,81,30.12,29.56,20,3,20,0.05
2013-1-26,45.4,40.9,35.8,43.9,38.9,34.8,98,93,83,29.82,29.53,15,3,15,0.24
2013-1-27,50.1,47.9,45.2,49.3,43.1,32.8,98,85,55,29.53,29.26,25,7,25,0.25
2013-1-28,51.2,43.0,35.5,48.8,40.5,33.9,97,91,84,29.81,29.51,17,5,24,0.12
2013-1-29,56.1,52.5,48.5,53.9,50.7,46.2,99,94,85,29.64,29.52,23,6,23,0.05
2013-1-30,54.0,49.1,43.7,53.2,44.2,39.0,98,84,64,30.02,29.49,32,8,32,0.21
2013-1-31,50.4,47.4,43.8,45.2,41.5,38.8,90,80,67,30.03,29.77,25,7,25,0.03